Time;durP1;ratioP1;P1;durP2;ratioP2;P2;SDS_P1;SDS_P2;PMS_P1;PMS_P2;Temp;Humidity;BMP_temperature;BMP_pressure;BME280_temperature;BME280_humidity;BME280_pressure;Samples;Min_cycle;Max_cycle;Signal;HPM_P1;HPM_P2
2022/07/05 00:05:13;;;;;;;0.20;0.00;;;23.20;99.90;;;;;;21165554;28;20288;-72
2022/07/05 00:15:19;;;;;;;0.20;0.00;;;23.20;99.90;;;;;;21165040;28;20235;-71
2022/07/05 00:25:22;;;;;;;0.20;0.00;;;23.20;99.90;;;;;;21102160;28;1860105;-71
2022/07/05 00:35:28;;;;;;;0.20;0.00;;;23.10;99.90;;;;;;21206192;28;20184;-72
2022/07/05 00:45:32;;;;;;;0.20;0.00;;;22.90;99.90;;;;;;21250612;28;20238;-72
2022/07/05 00:55:37;;;;;;;0.20;0.00;;;22.90;99.90;;;;;;21251563;28;20205;-72
2022/07/05 01:05:41;;;;;;;0.20;0.00;;;22.90;99.90;;;;;;21244964;28;20234;-70
2022/07/05 01:15:47;;;;;;;0.20;0.00;;;22.80;99.90;;;;;;21166021;28;20284;-71
2022/07/05 01:25:54;;;;;;;0.20;0.00;;;22.80;99.90;;;;;;21165949;28;20228;-71
2022/07/05 01:35:58;;;;;;;0.20;0.10;;;22.90;99.90;;;;;;21207610;28;20211;-71
2022/07/05 01:46:05;;;;;;;0.20;0.00;;;22.80;99.90;;;;;;21249926;28;20237;-72
2022/07/05 01:56:09;;;;;;;0.20;0.00;;;23.10;99.90;;;;;;21256888;28;20198;-72
2022/07/05 02:06:14;;;;;;;0.20;0.00;;;23.00;99.90;;;;;;21263749;28;20223;-71
2022/07/05 02:16:18;;;;;;;0.20;0.00;;;22.70;99.90;;;;;;21262836;28;20223;-73
2022/07/05 02:26:23;;;;;;;0.20;0.00;;;22.70;99.90;;;;;;21262072;28;20214;-73
2022/07/05 02:36:27;;;;;;;0.20;0.00;;;22.80;99.90;;;;;;21259507;28;20210;-72
2022/07/05 02:46:33;;;;;;;0.20;0.00;;;22.60;99.90;;;;;;21259492;28;20230;-71
2022/07/05 02:56:37;;;;;;;0.20;0.00;;;22.60;99.90;;;;;;21258850;28;20216;-70
2022/07/05 03:06:42;;;;;;;0.20;0.00;;;22.60;99.90;;;;;;21257762;28;20219;-69
2022/07/05 03:16:51;;;;;;;0.20;0.00;;;22.70;99.90;;;;;;21257675;28;20218;-70
2022/07/05 03:26:56;;;;;;;0.20;0.00;;;22.70;99.90;;;;;;21256919;28;20203;-71
2022/07/05 03:37:00;;;;;;;0.20;0.00;;;22.80;99.90;;;;;;21204061;28;20192;-71
2022/07/05 03:47:05;;;;;;;0.20;0.00;;;23.10;99.90;;;;;;21170459;28;20216;-72
2022/07/05 03:57:09;;;;;;;0.20;0.00;;;23.10;99.90;;;;;;21169992;28;20200;-72
2022/07/05 04:07:15;;;;;;;0.20;0.00;;;23.40;99.90;;;;;;21169024;28;20234;-72
2022/07/05 04:17:19;;;;;;;0.20;0.00;;;23.40;99.90;;;;;;21166868;28;20218;-70
2022/07/05 04:27:24;;;;;;;0.20;0.00;;;23.30;99.90;;;;;;21167665;28;20231;-73
2022/07/05 04:37:29;;;;;;;0.20;0.00;;;23.20;99.90;;;;;;21220774;28;20229;-72
2022/07/05 04:47:35;;;;;;;0.20;0.00;;;23.20;99.90;;;;;;21251010;28;20234;-72
2022/07/05 04:57:39;;;;;;;0.20;0.00;;;23.40;99.90;;;;;;21250025;28;20207;-72
2022/07/05 05:07:45;;;;;;;0.20;0.00;;;23.50;99.90;;;;;;21250095;28;20324;-71
2022/07/05 05:17:49;;;;;;;0.20;0.00;;;23.60;99.90;;;;;;21248051;28;20227;-71
2022/07/05 05:27:54;;;;;;;0.20;0.00;;;24.00;99.90;;;;;;21249684;28;20295;-72
2022/07/05 05:37:58;;;;;;;0.20;0.00;;;24.50;99.90;;;;;;21202347;28;20188;-72
2022/07/05 05:48:03;;;;;;;0.20;0.00;;;25.20;99.90;;;;;;21176803;28;20287;-69
2022/07/05 05:58:14;;;;;;;0.20;0.08;;;25.70;99.90;;;;;;21175530;28;20287;-71
2022/07/05 06:08:20;;;;;;;0.20;0.00;;;25.60;99.90;;;;;;21174454;28;20207;-70
2022/07/05 06:18:23;;;;;;;0.20;0.03;;;25.70;99.90;;;;;;21173558;28;20250;-69
2022/07/05 06:28:29;;;;;;;0.20;0.00;;;25.90;99.90;;;;;;21173327;28;20224;-71
2022/07/05 06:38:32;;;;;;;0.20;0.00;;;26.30;99.90;;;;;;21235698;28;20184;-71
2022/07/05 06:48:37;;;;;;;0.20;0.00;;;26.60;99.90;;;;;;21255465;28;20238;-71
2022/07/05 06:58:41;;;;;;;0.20;0.00;;;27.00;99.90;;;;;;21253841;28;20225;-74
2022/07/05 07:19:06;;;;;;;0.20;0.00;;;27.30;99.90;;;;;;21252253;28;20227;-70
2022/07/05 07:29:16;;;;;;;0.20;0.00;;;27.70;99.90;;;;;;21253197;28;20237;-70
2022/07/05 07:39:20;;;;;;;0.20;0.00;;;28.20;99.90;;;;;;21249392;28;20207;-70
2022/07/05 07:49:23;;;;;;;0.20;0.00;;;28.50;99.90;;;;;;21221754;28;20212;-69
2022/07/05 07:59:27;;;;;;;0.20;0.08;;;28.70;99.90;;;;;;21187608;28;20207;-69
2022/07/05 08:09:32;;;;;;;0.20;0.00;;;28.80;99.90;;;;;;21248724;28;20242;-71
2022/07/05 08:29:59;;;;;;;0.20;0.00;;;27.40;99.90;;;;;;21247820;28;20235;-69
2022/07/05 08:40:08;;;;;;;0.20;0.00;;;27.50;99.90;;;;;;21170148;28;20181;-70
2022/07/05 08:50:15;;;;;;;0.20;0.00;;;27.30;99.90;;;;;;21173024;28;20242;-70
2022/07/05 09:00:19;;;;;;;0.20;0.00;;;27.30;99.90;;;;;;21234109;28;20218;-71
2022/07/05 09:10:27;;;;;;;0.20;0.10;;;27.50;99.90;;;;;;21250681;28;20294;-71
2022/07/05 09:20:31;;;;;;;0.20;0.00;;;28.10;99.90;;;;;;21250398;28;20231;-70
2022/07/05 09:30:38;;;;;;;0.20;0.00;;;28.00;99.90;;;;;;21252529;28;20215;-69
2022/07/05 09:40:48;;;;;;;0.20;0.00;;;27.90;99.90;;;;;;21234617;28;20184;-67
2022/07/05 09:51:04;;;;;;;0.20;0.00;;;28.20;99.90;;;;;;21184922;28;20219;-70
2022/07/05 10:01:30;;;;;;;0.20;0.10;;;28.20;99.90;;;;;;21165767;28;20212;-70
2022/07/05 10:11:38;;;;;;;0.20;0.00;;;28.50;99.90;;;;;;21164424;28;20346;-70
2022/07/05 10:21:43;;;;;;;0.20;0.00;;;28.70;99.90;;;;;;21167213;28;20239;-70
2022/07/05 10:32:10;;;;;;;0.20;0.00;;;28.90;99.90;;;;;;21194571;28;20219;-70
2022/07/05 10:42:15;;;;;;;0.20;0.00;;;29.10;99.90;;;;;;21204476;28;20932;-69
2022/07/05 10:52:27;;;;;;;0.20;0.00;;;29.10;99.90;;;;;;21242811;28;20245;-70
2022/07/05 11:02:31;;;;;;;0.20;0.10;;;29.30;99.90;;;;;;21240233;28;20649;-72
2022/07/05 11:12:39;;;;;;;0.20;0.00;;;29.10;99.90;;;;;;21241481;28;20271;-70
2022/07/05 11:22:58;;;;;;;0.20;0.10;;;29.70;99.90;;;;;;21241560;28;20253;-68
2022/07/05 11:33:26;;;;;;;0.20;0.00;;;30.10;99.90;;;;;;21237990;28;20291;-68
2022/07/05 11:43:31;;;;;;;0.20;0.00;;;30.60;99.90;;;;;;21234981;28;20207;-68
2022/07/05 11:53:37;;;;;;;0.20;0.00;;;30.60;99.90;;;;;;21152797;28;20288;-69
2022/07/05 12:04:01;;;;;;;0.20;0.00;;;30.90;99.90;;;;;;21150931;28;20192;-69
2022/07/05 12:14:07;;;;;;;0.20;0.00;;;31.90;99.90;;;;;;21151338;28;20261;-68
2022/07/05 12:24:18;;;;;;;0.20;0.00;;;32.20;99.90;;;;;;21175270;28;20233;-68
2022/07/05 12:34:24;;;;;;;0.20;0.00;;;32.60;99.90;;;;;;21234860;28;20209;-69
2022/07/05 12:44:27;;;;;;;0.20;0.00;;;32.90;99.90;;;;;;21224069;28;20237;-68
2022/07/05 13:04:54;;;;;;;0.20;0.00;;;33.30;99.90;;;;;;21150389;28;20211;-68
2022/07/05 13:14:59;;;;;;;0.20;0.00;;;33.40;99.90;;;;;;21150578;28;20228;-67
2022/07/05 13:25:04;;;;;;;0.20;0.00;;;33.30;99.90;;;;;;21149635;28;20291;-69
2022/07/05 13:35:11;;;;;;;0.20;0.00;;;33.40;99.90;;;;;;21147932;28;20205;-70
2022/07/05 13:45:15;;;;;;;0.20;0.00;;;33.20;99.90;;;;;;21150134;28;20241;-69
2022/07/05 13:55:20;;;;;;;0.20;0.00;;;33.70;99.90;;;;;;21162595;28;20252;-68
2022/07/05 14:05:23;;;;;;;0.20;0.00;;;33.60;99.90;;;;;;21163963;28;20212;-68
2022/07/05 14:15:29;;;;;;;0.20;0.00;;;33.80;99.90;;;;;;21164126;28;20276;-70
2022/07/05 14:25:33;;;;;;;0.20;0.00;;;33.50;99.90;;;;;;21163192;28;20295;-69
2022/07/05 14:35:38;;;;;;;0.20;0.00;;;33.80;99.90;;;;;;21161470;28;20220;-68
2022/07/05 14:45:42;;;;;;;0.20;0.00;;;34.50;99.90;;;;;;21158572;28;20235;-69
2022/07/05 14:55:49;;;;;;;0.20;0.00;;;34.40;99.90;;;;;;21158775;28;20307;-68
2022/07/05 15:05:53;;;;;;;0.20;0.00;;;35.40;99.90;;;;;;21155226;28;20231;-69
2022/07/05 15:15:58;;;;;;;0.20;0.00;;;34.40;99.90;;;;;;21155857;28;20284;-69
2022/07/05 15:26:02;;;;;;;0.20;0.00;;;34.10;99.90;;;;;;21156353;28;20215;-70
2022/07/05 15:36:08;;;;;;;0.20;0.00;;;33.40;99.90;;;;;;21154396;28;20192;-69
2022/07/05 15:46:11;;;;;;;0.20;0.00;;;33.80;99.90;;;;;;21153975;28;20243;-71
2022/07/05 15:56:17;;;;;;;0.20;0.10;;;33.00;99.90;;;;;;21155531;28;20192;-69
2022/07/05 16:06:20;;;;;;;0.20;0.00;;;33.30;99.90;;;;;;21153581;28;20280;-70
2022/07/05 16:16:26;;;;;;;0.20;0.00;;;33.20;99.90;;;;;;21155174;28;20239;-69
2022/07/05 16:26:29;;;;;;;0.20;0.00;;;33.50;99.90;;;;;;21156658;28;20215;-70
2022/07/05 16:36:35;;;;;;;0.20;0.00;;;32.40;99.90;;;;;;21153242;28;20214;-70
2022/07/05 16:46:39;;;;;;;0.20;0.00;;;31.70;99.90;;;;;;21133460;28;20220;-69
2022/07/05 16:56:45;;;;;;;0.20;0.00;;;31.10;99.90;;;;;;21161518;28;20212;-70
2022/07/05 17:06:48;;;;;;;0.20;0.00;;;28.80;99.90;;;;;;21162680;28;20223;-70
2022/07/05 17:16:53;;;;;;;0.20;0.00;;;28.20;99.90;;;;;;21160717;28;20243;-71
2022/07/05 17:26:58;;;;;;;0.20;0.10;;;27.90;99.90;;;;;;21168943;28;20216;-71
2022/07/05 17:37:03;;;;;;;0.20;0.00;;;28.20;99.90;;;;;;21228385;28;20206;-72
2022/07/05 17:47:07;;;;;;;0.20;0.00;;;27.70;99.90;;;;;;21257080;28;20302;-71
2022/07/05 17:57:12;;;;;;;0.20;0.00;;;27.40;99.90;;;;;;21254848;28;20195;-71
2022/07/05 18:07:16;;;;;;;0.20;0.00;;;27.60;99.90;;;;;;21256422;28;20241;-71
2022/07/05 18:17:21;;;;;;;0.20;0.00;;;27.60;99.90;;;;;;21254135;28;20223;-72
2022/07/05 18:27:25;;;;;;;0.20;0.10;;;27.70;99.90;;;;;;21253320;28;20219;-72
2022/07/05 18:37:30;;;;;;;0.20;0.00;;;27.20;99.90;;;;;;21196698;28;20223;-73
2022/07/05 18:47:34;;;;;;;0.20;0.00;;;27.00;99.90;;;;;;21167830;28;20247;-71
2022/07/05 18:57:39;;;;;;;0.20;0.00;;;26.60;99.90;;;;;;21166979;28;20192;-71
2022/07/05 19:18:06;;;;;;;0.20;0.00;;;26.90;99.90;;;;;;21165120;28;20244;-70
2022/07/05 19:28:10;;;;;;;0.20;0.10;;;26.70;99.90;;;;;;21165462;28;20224;-72
2022/07/05 19:38:20;;;;;;;0.20;0.10;;;26.60;99.90;;;;;;21225186;28;20191;-71
2022/07/05 19:48:24;;;;;;;0.20;0.00;;;26.60;99.90;;;;;;21246871;28;20219;-68
2022/07/05 19:58:31;;;;;;;0.20;0.00;;;25.60;99.90;;;;;;21248792;28;20196;-70
2022/07/05 20:08:34;;;;;;;0.20;0.00;;;25.60;99.90;;;;;;21247140;28;20222;-70
2022/07/05 20:18:40;;;;;;;0.20;0.00;;;26.00;99.90;;;;;;21243705;28;20235;-69
2022/07/05 20:28:44;;;;;;;0.20;0.00;;;26.60;99.90;;;;;;21249981;28;20294;-69
2022/07/05 20:38:49;;;;;;;0.20;0.00;;;26.80;99.90;;;;;;21245605;28;20195;-70
2022/07/05 20:48:52;;;;;;;0.20;0.10;;;26.30;99.90;;;;;;21249030;28;20222;-70
2022/07/05 20:58:58;;;;;;;0.20;0.10;;;26.70;99.90;;;;;;21250111;28;20230;-70
2022/07/05 21:09:01;;;;;;;0.20;0.00;;;26.70;99.90;;;;;;21223002;28;20226;-69
2022/07/05 21:19:06;;;;;;;0.20;0.00;;;26.50;99.90;;;;;;21219616;28;20250;-69
2022/07/05 21:29:10;;;;;;;0.20;0.00;;;25.10;99.90;;;;;;21216894;28;20214;-69
2022/07/05 21:39:14;;;;;;;0.20;0.00;;;24.80;99.90;;;;;;21215354;28;20188;-71
2022/07/05 21:49:18;;;;;;;0.20;0.00;;;25.40;99.90;;;;;;21211614;28;20224;-70
2022/07/05 22:09:46;;;;;;;0.20;0.00;;;26.00;99.90;;;;;;21216142;28;20220;-69
2022/07/05 22:19:51;;;;;;;0.20;0.00;;;26.10;99.90;;;;;;21216403;28;20224;-70
2022/07/05 22:29:55;;;;;;;0.20;0.00;;;26.00;99.90;;;;;;21214505;28;20236;-71
2022/07/05 22:40:02;;;;;;;0.20;0.00;;;25.40;99.90;;;;;;21237426;28;20207;-71
2022/07/05 22:50:07;;;;;;;0.20;0.00;;;25.60;99.90;;;;;;21216939;28;20227;-71
2022/07/05 23:00:13;;;;;;;0.20;0.00;;;25.30;99.90;;;;;;21213269;28;20200;-69
2022/07/05 23:10:17;;;;;;;0.20;0.00;;;25.30;99.90;;;;;;21212689;28;20219;-69
2022/07/05 23:20:23;;;;;;;0.20;0.00;;;25.00;99.90;;;;;;21210205;28;20258;-69
2022/07/05 23:30:27;;;;;;;0.20;0.00;;;24.80;99.90;;;;;;21207670;28;20246;-69
2022/07/05 23:40:32;;;;;;;0.20;0.00;;;24.80;99.90;;;;;;21208468;28;20198;-68
2022/07/05 23:50:35;;;;;;;0.20;0.00;;;24.80;99.90;;;;;;21212806;28;20245;-68
